createdAt,value
2023-05-14T00:00:01.514Z,13.75
2023-05-14T00:01:01.496Z,13.75
2023-05-14T00:02:01.665Z,13.78
2023-05-14T00:03:01.493Z,13.78
2023-05-14T00:04:01.472Z,13.79
2023-05-14T00:05:01.403Z,13.91
2023-05-14T00:06:01.411Z,13.90
2023-05-14T00:07:01.429Z,13.96
2023-05-14T00:08:01.383Z,13.96
2023-05-14T00:09:01.412Z,13.91
2023-05-14T00:10:01.347Z,13.88
2023-05-14T00:11:01.337Z,13.85
2023-05-14T00:12:01.333Z,13.80
2023-05-14T00:13:01.358Z,13.82
2023-05-14T00:14:01.312Z,13.78
2023-05-14T00:15:01.589Z,13.78
2023-05-14T00:16:01.305Z,13.80
2023-05-14T00:17:01.343Z,13.75
2023-05-14T00:18:01.321Z,13.75
2023-05-14T00:19:01.339Z,13.75
2023-05-14T00:20:01.282Z,13.79
2023-05-14T00:21:01.260Z,13.79
2023-05-14T00:22:01.224Z,13.80
2023-05-14T00:23:01.269Z,13.86
2023-05-14T00:24:01.229Z,13.86
2023-05-14T00:25:01.277Z,13.91
2023-05-14T00:26:01.188Z,13.90
2023-05-14T00:27:01.203Z,13.88
2023-05-14T00:28:01.196Z,13.86
2023-05-14T00:29:01.198Z,13.90
2023-05-14T00:30:01.403Z,13.86
2023-05-14T00:31:01.157Z,13.86
2023-05-14T00:32:01.161Z,13.78
2023-05-14T00:33:01.278Z,13.76
2023-05-14T00:34:01.093Z,13.78
2023-05-14T00:35:01.106Z,13.76
2023-05-14T00:36:01.092Z,13.82
2023-05-14T00:37:01.062Z,13.80
2023-05-14T00:38:01.073Z,13.80
2023-05-14T00:39:01.073Z,13.78
2023-05-14T00:40:01.074Z,13.78
2023-05-14T00:41:01.699Z,13.76
2023-05-14T00:42:01.049Z,13.75
2023-05-14T00:43:01.086Z,13.73
2023-05-14T00:44:01.017Z,13.73
2023-05-14T00:45:01.018Z,13.76
2023-05-14T00:46:01.007Z,13.79
2023-05-14T00:47:01.088Z,13.83
2023-05-14T00:48:00.993Z,13.85
2023-05-14T00:49:01.070Z,13.90
2023-05-14T00:50:00.926Z,13.85
2023-05-14T00:51:00.952Z,13.83
2023-05-14T00:52:01.201Z,13.85
2023-05-14T00:53:00.950Z,13.85
2023-05-14T00:54:00.909Z,13.82
2023-05-14T00:55:00.890Z,13.76
2023-05-14T00:56:00.869Z,13.72
2023-05-14T00:57:00.902Z,13.65
2023-05-14T00:58:00.891Z,13.64
2023-05-14T00:59:00.890Z,13.58
2023-05-14T01:00:00.929Z,13.60
2023-05-14T01:01:00.847Z,13.55
2023-05-14T01:02:00.840Z,13.60
2023-05-14T01:03:00.882Z,13.65
2023-05-14T01:04:00.916Z,13.72
2023-05-14T01:05:00.833Z,13.78
2023-05-14T01:06:00.802Z,13.75
2023-05-14T01:07:00.749Z,13.71
2023-05-14T01:08:00.773Z,13.67
2023-05-14T01:09:00.775Z,13.65
2023-05-14T01:10:00.730Z,13.68
2023-05-14T01:11:00.766Z,13.68
2023-05-14T01:12:00.735Z,13.63
2023-05-14T01:13:00.680Z,13.60
2023-05-14T01:14:00.670Z,13.58
2023-05-14T01:15:00.699Z,13.55
2023-05-14T01:16:00.753Z,13.49
2023-05-14T01:17:00.703Z,13.45
2023-05-14T01:18:00.640Z,13.40
2023-05-14T01:19:00.745Z,13.30
2023-05-14T01:20:00.669Z,13.32
2023-05-14T01:21:00.633Z,13.27
2023-05-14T01:22:00.623Z,13.29
2023-05-14T01:23:00.605Z,13.21
2023-05-14T01:24:00.643Z,13.20
2023-05-14T01:25:00.656Z,13.23
2023-05-14T01:26:00.568Z,13.24
2023-05-14T01:27:00.692Z,13.20
2023-05-14T01:28:00.590Z,13.24
2023-05-14T01:29:00.548Z,13.19
2023-05-14T01:30:00.614Z,13.23
2023-05-14T01:31:00.505Z,13.27
2023-05-14T01:32:00.567Z,13.23
2023-05-14T01:33:00.699Z,13.21
2023-05-14T01:34:00.556Z,13.17
2023-05-14T01:35:00.467Z,13.14
2023-05-14T01:36:00.464Z,13.16
2023-05-14T01:37:00.490Z,13.19
2023-05-14T01:38:00.489Z,13.17
2023-05-14T01:39:00.434Z,13.16
2023-05-14T01:40:00.437Z,13.14
2023-05-14T01:41:00.404Z,13.13
2023-05-14T01:42:00.390Z,13.14
2023-05-14T01:43:00.485Z,13.14
2023-05-14T01:44:00.438Z,13.13
2023-05-14T01:45:00.360Z,13.11
2023-05-14T01:46:00.445Z,13.08
2023-05-14T01:47:00.322Z,13.04
2023-05-14T01:48:00.408Z,13.06
2023-05-14T01:49:00.310Z,13.02
2023-05-14T01:50:00.317Z,13.04
2023-05-14T01:51:00.361Z,13.02
2023-05-14T01:52:00.267Z,12.98
2023-05-14T01:53:00.263Z,12.95
2023-05-14T01:54:00.372Z,12.88
2023-05-14T01:55:00.248Z,12.88
2023-05-14T01:56:00.274Z,12.95
2023-05-14T01:57:00.312Z,12.95
2023-05-14T01:58:00.223Z,12.96
2023-05-14T01:59:00.269Z,12.98
2023-05-14T02:00:00.260Z,12.99
2023-05-14T02:01:00.296Z,12.98
2023-05-14T02:02:00.235Z,12.95
2023-05-14T02:03:00.267Z,12.91
2023-05-14T02:04:00.297Z,12.91
2023-05-14T02:05:00.185Z,12.90
2023-05-14T02:06:00.148Z,12.90
2023-05-14T02:07:00.142Z,12.90
2023-05-14T02:08:00.130Z,12.91
2023-05-14T02:09:00.169Z,12.88
2023-05-14T02:10:00.137Z,12.87
2023-05-14T02:11:00.103Z,12.87
2023-05-14T02:12:00.160Z,12.86
2023-05-14T02:13:00.110Z,12.87
2023-05-14T02:14:00.166Z,12.83
2023-05-14T02:15:00.054Z,12.81
2023-05-14T02:16:00.055Z,12.79
2023-05-14T02:17:00.146Z,12.77
2023-05-14T02:18:00.015Z,12.76
2023-05-14T02:19:00.213Z,12.73
2023-05-14T02:20:00.042Z,12.69
2023-05-14T02:20:59.969Z,12.69
2023-05-14T02:22:00.012Z,12.76
2023-05-14T02:22:59.956Z,12.76
2023-05-14T02:23:59.964Z,12.77
2023-05-14T02:24:59.959Z,12.76
2023-05-14T02:25:59.963Z,12.76
2023-05-14T02:27:00.002Z,12.72
2023-05-14T02:27:59.901Z,12.76
2023-05-14T02:28:59.898Z,12.72
2023-05-14T02:29:59.900Z,12.73
2023-05-14T02:30:59.946Z,12.77
2023-05-14T02:31:59.900Z,12.72
2023-05-14T02:33:00.040Z,12.72
2023-05-14T02:33:59.853Z,12.73
2023-05-14T02:34:59.986Z,12.80
2023-05-14T02:35:59.838Z,12.80
2023-05-14T02:36:59.841Z,12.79
2023-05-14T02:37:59.895Z,12.80
2023-05-14T02:38:59.777Z,12.77
2023-05-14T02:39:59.864Z,12.76
2023-05-14T02:40:59.773Z,12.73
2023-05-14T02:41:59.774Z,12.80
2023-05-14T02:42:59.770Z,12.76
2023-05-14T02:43:59.778Z,12.72
2023-05-14T02:44:59.760Z,12.71
2023-05-14T02:45:59.758Z,12.71
2023-05-14T02:46:59.773Z,12.72
2023-05-14T02:47:59.725Z,12.69
2023-05-14T02:48:59.729Z,12.73
2023-05-14T02:49:59.728Z,12.73
2023-05-14T02:50:59.705Z,12.80
2023-05-14T02:51:59.741Z,12.79
2023-05-14T02:52:59.694Z,12.81
2023-05-14T02:53:59.647Z,12.83
2023-05-14T02:54:59.628Z,12.84
2023-05-14T02:55:59.640Z,12.83
2023-05-14T02:56:59.606Z,12.86
2023-05-14T02:57:59.632Z,12.84
2023-05-14T02:58:59.594Z,12.84
2023-05-14T02:59:59.554Z,12.86
2023-05-14T03:00:59.622Z,12.83
2023-05-14T03:01:59.635Z,12.80
2023-05-14T03:02:59.576Z,12.80
2023-05-14T03:03:59.547Z,12.73
2023-05-14T03:04:59.534Z,12.77
2023-05-14T03:05:59.557Z,12.77
2023-05-14T03:06:59.526Z,12.79
2023-05-14T03:07:59.529Z,12.84
2023-05-14T03:08:59.459Z,12.84
2023-05-14T03:09:59.434Z,12.86
2023-05-14T03:10:59.417Z,12.86
2023-05-14T03:11:59.388Z,12.81
2023-05-14T03:12:59.461Z,12.77
2023-05-14T03:13:59.469Z,12.69
2023-05-14T03:14:59.404Z,12.69
2023-05-14T03:15:59.496Z,12.68
2023-05-14T03:16:59.452Z,12.63
2023-05-14T03:17:59.445Z,12.66
2023-05-14T03:18:59.534Z,12.59
2023-05-14T03:19:59.401Z,12.58
2023-05-14T03:20:59.323Z,12.55
2023-05-14T03:21:59.287Z,12.55
2023-05-14T03:22:59.262Z,12.54
2023-05-14T03:23:59.333Z,12.58
2023-05-14T03:24:59.276Z,12.55
2023-05-14T03:25:59.279Z,12.61
2023-05-14T03:26:59.271Z,12.62
2023-05-14T03:27:59.489Z,12.62
2023-05-14T03:28:59.293Z,12.63
2023-05-14T03:29:59.238Z,12.59
2023-05-14T03:30:59.320Z,12.59
2023-05-14T03:31:59.197Z,12.59
2023-05-14T03:32:59.219Z,12.58
2023-05-14T03:33:59.270Z,12.62
2023-05-14T03:34:59.187Z,12.58
2023-05-14T03:35:59.216Z,12.63
2023-05-14T03:36:59.132Z,12.66
2023-05-14T03:37:59.193Z,12.68
2023-05-14T03:38:59.150Z,12.69
2023-05-14T03:39:59.115Z,12.66
2023-05-14T03:40:59.177Z,12.66
2023-05-14T03:41:59.098Z,12.65
2023-05-14T03:42:59.138Z,12.63
2023-05-14T03:43:59.127Z,12.59
2023-05-14T03:44:59.080Z,12.59
2023-05-14T03:45:59.196Z,12.53
2023-05-14T03:46:59.070Z,12.53
2023-05-14T03:47:59.199Z,12.53
2023-05-14T03:48:59.140Z,12.51
2023-05-14T03:49:59.074Z,12.48
2023-05-14T03:50:59.026Z,12.51
2023-05-14T03:51:58.998Z,12.51
2023-05-14T03:52:58.962Z,12.54
2023-05-14T03:53:59.042Z,12.51
2023-05-14T03:54:58.967Z,12.50
2023-05-14T03:55:58.942Z,12.51
2023-05-14T03:56:58.946Z,12.51
2023-05-14T03:57:58.922Z,12.48
2023-05-14T03:58:58.975Z,12.46
2023-05-14T03:59:58.913Z,12.46
2023-05-14T04:00:58.926Z,12.44
2023-05-14T04:01:58.939Z,12.46
2023-05-14T04:02:58.990Z,12.46
2023-05-14T04:03:58.963Z,12.41
2023-05-14T04:04:58.905Z,12.36
2023-05-14T04:05:58.880Z,12.35
2023-05-14T04:06:58.834Z,12.33
2023-05-14T04:07:58.833Z,12.29
2023-05-14T04:08:58.849Z,12.29
2023-05-14T04:09:58.878Z,12.29
2023-05-14T04:10:58.879Z,12.30
2023-05-14T04:11:58.817Z,12.28
2023-05-14T04:12:58.797Z,12.32
2023-05-14T04:13:58.794Z,12.35
2023-05-14T04:14:58.904Z,12.36
2023-05-14T04:15:58.792Z,12.40
2023-05-14T04:17:00.261Z,12.43
2023-05-14T04:17:58.791Z,12.43
2023-05-14T04:18:58.798Z,12.48
2023-05-14T04:19:58.778Z,12.53
2023-05-14T04:20:58.711Z,12.61
2023-05-14T04:21:58.661Z,12.68
2023-05-14T04:22:58.659Z,12.79
2023-05-14T04:23:58.703Z,12.84
2023-05-14T04:24:58.641Z,12.83
2023-05-14T04:25:58.668Z,12.84
2023-05-14T04:26:58.631Z,12.84
2023-05-14T04:27:58.626Z,12.83
2023-05-14T04:28:58.625Z,12.87
2023-05-14T04:29:58.621Z,12.90
2023-05-14T04:30:58.572Z,12.93
2023-05-14T04:31:58.696Z,12.88
2023-05-14T04:32:58.662Z,12.90
2023-05-14T04:33:58.634Z,12.84
2023-05-14T04:34:58.563Z,12.80
2023-05-14T04:35:58.547Z,12.72
2023-05-14T04:36:58.544Z,12.69
2023-05-14T04:37:58.664Z,12.65
2023-05-14T04:38:58.512Z,12.62
2023-05-14T04:39:58.482Z,12.58
2023-05-14T04:40:58.531Z,12.58
2023-05-14T04:41:58.482Z,12.59
2023-05-14T04:42:58.550Z,12.59
2023-05-14T04:43:58.471Z,12.61
2023-05-14T04:44:58.496Z,12.68
2023-05-14T04:45:58.477Z,12.68
2023-05-14T04:46:58.415Z,12.72
2023-05-14T04:47:58.454Z,12.76
2023-05-14T04:48:58.457Z,12.72
2023-05-14T04:49:58.358Z,12.76
2023-05-14T04:50:58.403Z,12.72
2023-05-14T04:51:58.346Z,12.69
2023-05-14T04:52:58.371Z,12.77
2023-05-14T04:53:58.473Z,12.86
2023-05-14T04:54:58.346Z,12.96
2023-05-14T04:55:58.386Z,13.02
2023-05-14T04:56:58.356Z,13.04
2023-05-14T04:57:58.316Z,13.04
2023-05-14T04:58:58.283Z,13.02
2023-05-14T04:59:58.315Z,13.04
2023-05-14T05:00:58.340Z,12.99
2023-05-14T05:01:58.257Z,12.98
2023-05-14T05:02:58.344Z,12.95
2023-05-14T05:03:58.283Z,12.96
2023-05-14T05:04:58.225Z,13.01
2023-05-14T05:05:58.234Z,13.09
2023-05-14T05:06:58.240Z,13.19
2023-05-14T05:07:58.227Z,13.19
2023-05-14T05:08:59.544Z,13.24
2023-05-14T05:09:58.191Z,13.26
2023-05-14T05:10:58.170Z,13.26
2023-05-14T05:11:58.247Z,13.23
2023-05-14T05:12:58.137Z,13.23
2023-05-14T05:13:58.115Z,13.21
2023-05-14T05:14:58.121Z,13.26
2023-05-14T05:15:58.180Z,13.38
2023-05-14T05:16:58.123Z,13.39
2023-05-14T05:17:58.187Z,13.42
2023-05-14T05:18:58.127Z,13.49
2023-05-14T05:19:58.135Z,13.49
2023-05-14T05:20:58.047Z,13.53
2023-05-14T05:21:58.072Z,13.61
2023-05-14T05:22:58.332Z,13.67
2023-05-14T05:23:58.040Z,13.73
2023-05-14T05:24:58.079Z,13.82
2023-05-14T05:25:58.024Z,13.85
2023-05-14T05:26:58.085Z,13.97
2023-05-14T05:27:57.997Z,14.00
2023-05-14T05:28:57.990Z,13.97
2023-05-14T05:29:58.060Z,13.97
2023-05-14T05:30:58.017Z,13.93
2023-05-14T05:31:57.959Z,13.96
2023-05-14T05:32:58.083Z,13.96
2023-05-14T05:33:57.935Z,13.91
2023-05-14T05:34:57.919Z,13.93
2023-05-14T05:35:57.921Z,13.91
2023-05-14T05:36:57.899Z,13.90
2023-05-14T05:38:00.499Z,13.88
2023-05-14T05:38:57.896Z,13.90
2023-05-14T05:39:57.901Z,13.94
2023-05-14T05:40:57.897Z,13.97
2023-05-14T05:41:57.865Z,14.03
2023-05-14T05:42:57.923Z,14.08
2023-05-14T05:43:57.823Z,14.16
2023-05-14T05:44:57.855Z,14.28
2023-05-14T05:45:57.814Z,14.46
2023-05-14T05:46:57.951Z,14.52
2023-05-14T05:47:57.871Z,14.52
2023-05-14T05:48:57.891Z,14.63
2023-05-14T05:49:57.814Z,14.67
2023-05-14T05:50:57.762Z,14.79
2023-05-14T05:51:57.769Z,14.96
2023-05-14T05:52:57.763Z,15.01
2023-05-14T05:53:57.791Z,15.01
2023-05-14T05:54:57.765Z,14.93
2023-05-14T05:55:57.704Z,14.95
2023-05-14T05:56:57.708Z,15.05
2023-05-14T05:57:57.687Z,15.11
2023-05-14T05:58:57.991Z,15.32
2023-05-14T05:59:57.708Z,15.59
2023-05-14T06:00:57.936Z,15.85
2023-05-14T06:01:57.765Z,16.03
2023-05-14T06:02:57.770Z,16.17
2023-05-14T06:03:57.709Z,16.22
2023-05-14T06:04:57.772Z,16.28
2023-05-14T06:05:57.632Z,16.34
2023-05-14T06:06:57.680Z,16.55
2023-05-14T06:07:57.579Z,16.87
2023-05-14T06:08:57.772Z,17.06
2023-05-14T06:09:57.805Z,17.09
2023-05-14T06:10:57.536Z,17.12
2023-05-14T06:11:57.566Z,16.97
2023-05-14T06:12:57.554Z,16.92
2023-05-14T06:13:57.597Z,16.87
2023-05-14T06:14:57.489Z,16.76
2023-05-14T06:15:57.505Z,16.77
2023-05-14T06:16:57.559Z,16.77
2023-05-14T06:17:57.606Z,16.79
2023-05-14T06:18:57.499Z,16.91
2023-05-14T06:19:57.466Z,16.98
2023-05-14T06:20:57.428Z,17.04
2023-05-14T06:21:57.482Z,17.13
2023-05-14T06:22:57.420Z,17.30
2023-05-14T06:23:57.400Z,17.52
2023-05-14T06:24:57.458Z,17.50
2023-05-14T06:25:57.456Z,17.31
2023-05-14T06:26:58.197Z,17.17
2023-05-14T06:27:57.382Z,17.04
2023-05-14T06:28:58.188Z,16.99
2023-05-14T06:29:57.380Z,16.91
2023-05-14T06:30:57.328Z,16.84
2023-05-14T06:31:57.403Z,16.77
2023-05-14T06:32:57.335Z,16.74
2023-05-14T06:33:57.327Z,16.59
2023-05-14T06:34:57.348Z,16.52
2023-05-14T06:35:57.376Z,16.52
2023-05-14T06:36:57.441Z,16.55
2023-05-14T06:37:57.258Z,16.29
2023-05-14T06:38:57.271Z,15.90
2023-05-14T06:39:57.985Z,15.78
2023-05-14T06:40:57.379Z,15.51
2023-05-14T06:41:57.211Z,15.25
2023-05-14T06:42:57.347Z,15.17
2023-05-14T06:43:57.188Z,15.22
2023-05-14T06:44:57.194Z,15.25
2023-05-14T06:45:57.227Z,15.36
2023-05-14T06:46:57.215Z,15.45
2023-05-14T06:47:57.267Z,15.51
2023-05-14T06:48:59.334Z,15.60
2023-05-14T06:49:57.107Z,15.73
2023-05-14T06:50:57.153Z,15.83
2023-05-14T06:51:57.094Z,15.93
2023-05-14T06:52:57.305Z,16.00
2023-05-14T06:53:57.076Z,16.09
2023-05-14T06:54:57.078Z,16.16
2023-05-14T06:55:57.094Z,16.24
2023-05-14T06:56:57.061Z,16.26
2023-05-14T06:57:57.074Z,16.22
2023-05-14T06:58:57.059Z,16.16
2023-05-14T06:59:57.017Z,16.14
2023-05-14T07:00:57.043Z,16.22
2023-05-14T07:01:57.066Z,16.25
2023-05-14T07:02:57.028Z,16.26
2023-05-14T07:03:56.984Z,16.33
2023-05-14T07:04:57.038Z,16.36
2023-05-14T07:05:56.960Z,16.39
2023-05-14T07:06:56.970Z,16.40
2023-05-14T07:07:56.962Z,16.36
2023-05-14T07:08:56.937Z,16.36
2023-05-14T07:09:56.931Z,16.36
2023-05-14T07:10:56.927Z,16.42
2023-05-14T07:11:56.941Z,16.46
2023-05-14T07:12:56.970Z,16.54
2023-05-14T07:13:56.903Z,16.59
2023-05-14T07:14:56.850Z,16.70
2023-05-14T07:15:56.899Z,16.74
2023-05-14T07:16:56.898Z,16.87
2023-05-14T07:17:56.966Z,16.91
2023-05-14T07:18:56.883Z,16.91
2023-05-14T07:19:56.802Z,16.84
2023-05-14T07:20:56.832Z,16.88
2023-05-14T07:21:56.793Z,16.90
2023-05-14T07:22:56.763Z,16.94
2023-05-14T07:23:56.812Z,16.95
2023-05-14T07:24:56.750Z,16.98
2023-05-14T07:25:56.946Z,16.98
2023-05-14T07:26:56.733Z,16.90
2023-05-14T07:27:56.746Z,16.80
2023-05-14T07:28:56.723Z,16.76
2023-05-14T07:29:57.004Z,16.80
2023-05-14T07:30:56.744Z,16.88
2023-05-14T07:31:56.719Z,16.99
2023-05-14T07:32:56.709Z,17.09
2023-05-14T07:33:56.678Z,17.17
2023-05-14T07:34:56.648Z,17.19
2023-05-14T07:35:56.652Z,17.22
2023-05-14T07:36:56.700Z,17.34
2023-05-14T07:37:56.657Z,17.28
2023-05-14T07:38:56.687Z,17.27
2023-05-14T07:39:56.597Z,17.30
2023-05-14T07:40:56.593Z,17.35
2023-05-14T07:41:56.607Z,17.38
2023-05-14T07:42:56.594Z,17.41
2023-05-14T07:43:56.671Z,17.41
2023-05-14T07:44:56.545Z,17.47
2023-05-14T07:45:56.666Z,17.47
2023-05-14T07:46:56.604Z,17.47
2023-05-14T07:47:56.686Z,17.53
2023-05-14T07:48:56.507Z,17.50
2023-05-14T07:49:56.512Z,17.50
2023-05-14T07:50:56.597Z,17.59
2023-05-14T07:51:56.515Z,17.57
2023-05-14T07:52:56.480Z,17.50
2023-05-14T07:53:56.447Z,17.34
2023-05-14T07:54:57.139Z,17.30
2023-05-14T07:55:56.503Z,17.30
2023-05-14T07:56:57.061Z,17.32
2023-05-14T07:57:56.427Z,17.41
2023-05-14T07:58:56.410Z,17.43
2023-05-14T07:59:56.404Z,17.24
2023-05-14T08:00:56.476Z,17.09
2023-05-14T08:01:56.500Z,16.90
2023-05-14T08:02:56.547Z,16.76
2023-05-14T08:03:56.449Z,16.84
2023-05-14T08:04:56.420Z,16.92
2023-05-14T08:05:56.372Z,16.99
2023-05-14T08:06:56.814Z,17.14
2023-05-14T08:07:56.337Z,17.16
2023-05-14T08:08:56.298Z,17.25
2023-05-14T08:09:56.342Z,17.32
2023-05-14T08:10:56.338Z,17.37
2023-05-14T08:11:56.265Z,17.38
2023-05-14T08:12:56.320Z,17.50
2023-05-14T08:13:56.279Z,17.65
2023-05-14T08:14:56.262Z,17.78
2023-05-14T08:15:56.283Z,17.88
2023-05-14T08:16:56.353Z,18.02
2023-05-14T08:17:56.258Z,18.08
2023-05-14T08:18:56.285Z,18.11
2023-05-14T08:19:56.197Z,18.18
2023-05-14T08:20:56.224Z,18.17
2023-05-14T08:21:56.174Z,17.91
2023-05-14T08:22:56.132Z,17.81
2023-05-14T08:23:56.212Z,17.86
2023-05-14T08:24:56.224Z,17.96
2023-05-14T08:25:56.124Z,18.05
2023-05-14T08:26:56.106Z,18.11
2023-05-14T08:27:56.143Z,18.21
2023-05-14T08:28:56.205Z,18.34
2023-05-14T08:29:56.086Z,18.43
2023-05-14T08:30:56.088Z,18.60
2023-05-14T08:31:56.036Z,18.74
2023-05-14T08:32:56.113Z,18.74
2023-05-14T08:33:56.095Z,18.76
2023-05-14T08:34:56.075Z,18.75
2023-05-14T08:35:56.129Z,18.76
2023-05-14T08:36:56.032Z,18.82
2023-05-14T08:37:56.009Z,18.82
2023-05-14T08:38:55.997Z,18.89
2023-05-14T08:39:55.986Z,18.97
2023-05-14T08:40:56.008Z,19.00
2023-05-14T08:41:55.972Z,19.01
2023-05-14T08:42:55.991Z,18.94
2023-05-14T08:43:55.945Z,18.88
2023-05-14T08:44:55.971Z,18.91
2023-05-14T08:45:55.955Z,18.91
2023-05-14T08:46:55.929Z,18.89
2023-05-14T08:47:56.040Z,18.83
2023-05-14T08:48:55.971Z,18.81
2023-05-14T08:49:55.881Z,18.64
2023-05-14T08:50:55.917Z,18.60
2023-05-14T08:51:55.865Z,18.68
2023-05-14T08:52:55.866Z,18.79
2023-05-14T08:53:55.858Z,18.83
2023-05-14T08:54:55.814Z,18.83
2023-05-14T08:55:55.789Z,18.89
2023-05-14T08:56:55.901Z,18.88
2023-05-14T08:57:55.840Z,18.81
2023-05-14T08:58:55.799Z,18.71
2023-05-14T08:59:55.822Z,18.63
2023-05-14T09:00:55.753Z,18.54
2023-05-14T09:01:55.784Z,18.52
2023-05-14T09:02:55.794Z,18.60
2023-05-14T09:03:55.790Z,18.60
2023-05-14T09:04:55.706Z,18.33
2023-05-14T09:05:56.453Z,18.21
2023-05-14T09:06:55.708Z,18.23
2023-05-14T09:07:55.716Z,18.27
2023-05-14T09:08:55.671Z,18.39
2023-05-14T09:09:55.684Z,18.48
2023-05-14T09:10:55.687Z,18.49
2023-05-14T09:11:55.715Z,18.58
2023-05-14T09:12:55.656Z,18.64
2023-05-14T09:13:55.610Z,18.74
2023-05-14T09:14:55.667Z,18.86
2023-05-14T09:15:55.640Z,19.05
2023-05-14T09:16:55.593Z,19.22
2023-05-14T09:17:55.723Z,19.37
2023-05-14T09:18:55.604Z,19.38
2023-05-14T09:19:55.672Z,19.45
2023-05-14T09:20:55.663Z,19.54
2023-05-14T09:21:55.596Z,19.62
2023-05-14T09:22:55.590Z,19.70
2023-05-14T09:23:55.723Z,19.75
2023-05-14T09:24:55.578Z,19.75
2023-05-14T09:25:55.484Z,19.75
2023-05-14T09:26:55.590Z,19.72
2023-05-14T09:27:58.003Z,19.81
2023-05-14T09:28:55.512Z,19.79
2023-05-14T09:29:55.453Z,19.63
2023-05-14T09:30:55.518Z,19.38
2023-05-14T09:31:55.461Z,19.34
2023-05-14T09:32:55.546Z,19.30
2023-05-14T09:33:55.482Z,19.16
2023-05-14T09:34:55.413Z,19.13
2023-05-14T09:35:56.993Z,19.24
2023-05-14T09:36:55.395Z,19.20
2023-05-14T09:37:55.418Z,19.20
2023-05-14T09:38:55.351Z,19.22
2023-05-14T09:39:55.346Z,19.22
2023-05-14T09:40:55.441Z,19.20
2023-05-14T09:41:55.332Z,19.19
2023-05-14T09:42:55.363Z,19.22
2023-05-14T09:43:55.302Z,19.22
2023-05-14T09:44:55.285Z,19.23
2023-05-14T09:45:55.331Z,19.24
2023-05-14T09:46:55.287Z,19.19
2023-05-14T09:47:55.504Z,19.22
2023-05-14T09:48:55.274Z,19.27
2023-05-14T09:49:55.264Z,19.17
2023-05-14T09:50:55.277Z,19.04
2023-05-14T09:51:55.239Z,18.96
2023-05-14T09:52:55.211Z,18.85
2023-05-14T09:53:55.246Z,18.81
2023-05-14T09:54:55.215Z,18.89
2023-05-14T09:55:55.221Z,18.89
2023-05-14T09:56:55.900Z,19.04
2023-05-14T09:57:55.164Z,19.12
2023-05-14T09:58:55.160Z,19.19
2023-05-14T09:59:55.167Z,19.27
2023-05-14T10:00:55.176Z,19.37
2023-05-14T10:01:55.150Z,19.45
2023-05-14T10:02:55.182Z,19.52
2023-05-14T10:03:55.135Z,19.49
2023-05-14T10:04:55.118Z,19.47
2023-05-14T10:05:55.108Z,19.45
2023-05-14T10:06:55.059Z,19.56
2023-05-14T10:07:55.081Z,19.38
2023-05-14T10:08:55.054Z,19.34
2023-05-14T10:09:56.279Z,19.44
2023-05-14T10:10:55.033Z,19.52
2023-05-14T10:11:55.021Z,19.60
2023-05-14T10:12:55.016Z,19.77
2023-05-14T10:13:55.032Z,19.86
2023-05-14T10:14:55.077Z,19.92
2023-05-14T10:15:54.969Z,19.87
2023-05-14T10:16:55.134Z,19.75
2023-05-14T10:17:55.003Z,19.75
2023-05-14T10:18:57.170Z,19.71
2023-05-14T10:19:54.951Z,19.64
2023-05-14T10:20:54.953Z,19.70
2023-05-14T10:21:54.924Z,19.78
2023-05-14T10:22:54.979Z,19.86
2023-05-14T10:23:54.940Z,19.81
2023-05-14T10:24:54.940Z,19.75
2023-05-14T10:25:54.880Z,19.59
2023-05-14T10:26:54.905Z,19.41
2023-05-14T10:27:54.936Z,19.42
2023-05-14T10:28:54.922Z,19.42
2023-05-14T10:29:54.980Z,19.50
2023-05-14T10:30:54.905Z,19.56
2023-05-14T10:31:54.939Z,19.50
2023-05-14T10:32:54.886Z,19.47
2023-05-14T10:33:54.798Z,19.41
2023-05-14T10:34:54.784Z,19.38
2023-05-14T10:35:54.795Z,19.39
2023-05-14T10:36:54.824Z,19.26
2023-05-14T10:37:54.792Z,19.26
2023-05-14T10:38:54.734Z,19.34
2023-05-14T10:39:54.753Z,19.42
2023-05-14T10:40:54.757Z,19.50
2023-05-14T10:41:54.729Z,19.57
2023-05-14T10:42:54.792Z,19.59
2023-05-14T10:43:54.772Z,19.56
2023-05-14T10:44:54.682Z,19.53
2023-05-14T10:45:54.694Z,19.54
2023-05-14T10:46:54.742Z,19.52
2023-05-14T10:47:54.778Z,19.50
2023-05-14T10:48:54.752Z,19.49
2023-05-14T10:49:54.664Z,19.49
2023-05-14T10:50:54.765Z,19.49
2023-05-14T10:51:54.631Z,19.47
2023-05-14T10:52:54.690Z,19.47
2023-05-14T10:53:54.590Z,19.52
2023-05-14T10:54:54.701Z,19.47
2023-05-14T10:55:54.598Z,19.44
2023-05-14T10:56:54.579Z,19.47
2023-05-14T10:57:54.817Z,19.50
2023-05-14T10:58:54.532Z,19.42
2023-05-14T10:59:54.564Z,19.39
2023-05-14T11:00:54.548Z,19.39
2023-05-14T11:01:54.611Z,19.47
2023-05-14T11:02:54.553Z,19.49
2023-05-14T11:03:54.524Z,19.49
2023-05-14T11:04:54.468Z,19.53
2023-05-14T11:05:54.498Z,19.47
2023-05-14T11:06:54.486Z,19.42
2023-05-14T11:07:54.483Z,19.41
2023-05-14T11:08:54.434Z,19.35
2023-05-14T11:09:54.418Z,19.35
2023-05-14T11:10:54.448Z,19.35
2023-05-14T11:11:54.442Z,19.37
2023-05-14T11:12:54.844Z,19.34
2023-05-14T11:13:54.396Z,19.32
2023-05-14T11:14:54.373Z,19.32
2023-05-14T11:15:54.379Z,19.34
2023-05-14T11:16:54.419Z,19.39
2023-05-14T11:17:54.461Z,19.42
2023-05-14T11:18:54.511Z,19.56
2023-05-14T11:19:54.554Z,19.63
2023-05-14T11:20:54.339Z,19.70
2023-05-14T11:21:54.702Z,19.77
2023-05-14T11:22:54.309Z,19.81
2023-05-14T11:23:54.322Z,19.90
2023-05-14T11:24:54.283Z,19.93
2023-05-14T11:25:54.352Z,19.89
2023-05-14T11:26:54.355Z,19.78
2023-05-14T11:27:54.392Z,19.72
2023-05-14T11:28:54.249Z,19.75
2023-05-14T11:29:54.376Z,19.78
2023-05-14T11:30:54.240Z,19.81
2023-05-14T11:31:54.300Z,19.82
2023-05-14T11:32:54.330Z,19.86
2023-05-14T11:33:54.299Z,19.78
2023-05-14T11:34:54.193Z,19.75
2023-05-14T11:35:54.212Z,19.63
2023-05-14T11:36:54.154Z,19.52
2023-05-14T11:37:54.214Z,19.41
2023-05-14T11:38:54.196Z,19.38
2023-05-14T11:39:54.287Z,19.49
2023-05-14T11:40:54.145Z,19.54
2023-05-14T11:41:54.139Z,19.67
2023-05-14T11:42:54.157Z,19.79
2023-05-14T11:43:54.218Z,19.90
2023-05-14T11:44:54.243Z,19.94
2023-05-14T11:45:54.191Z,19.92
2023-05-14T11:46:54.075Z,19.90
2023-05-14T11:47:54.227Z,19.92
2023-05-14T11:48:54.025Z,19.94
2023-05-14T11:49:54.076Z,20.04
2023-05-14T11:50:54.014Z,20.09
2023-05-14T11:51:54.052Z,20.08
2023-05-14T11:52:54.163Z,19.99
2023-05-14T11:53:54.109Z,19.92
2023-05-14T11:54:54.072Z,19.94
2023-05-14T11:55:54.014Z,19.89
2023-05-14T11:56:54.016Z,19.84
2023-05-14T11:57:53.958Z,19.86
2023-05-14T11:58:53.945Z,19.86
2023-05-14T11:59:53.938Z,19.86
2023-05-14T12:00:53.962Z,19.84
2023-05-14T12:01:53.915Z,19.90
2023-05-14T12:02:54.079Z,19.94
2023-05-14T12:03:53.926Z,19.92
2023-05-14T12:04:54.346Z,19.90
2023-05-14T12:05:53.865Z,19.79
2023-05-14T12:06:53.908Z,19.70
2023-05-14T12:07:53.828Z,19.68
2023-05-14T12:08:53.835Z,19.68
2023-05-14T12:09:53.977Z,19.74
2023-05-14T12:10:53.796Z,19.82
2023-05-14T12:11:53.832Z,19.92
2023-05-14T12:12:53.808Z,20.00
2023-05-14T12:13:53.836Z,20.04
2023-05-14T12:14:53.806Z,20.09
2023-05-14T12:15:53.818Z,20.15
2023-05-14T12:16:53.752Z,20.19
2023-05-14T12:17:53.921Z,20.26
2023-05-14T12:18:53.760Z,20.19
2023-05-14T12:19:53.734Z,20.19
2023-05-14T12:20:53.702Z,20.17
2023-05-14T12:21:53.724Z,20.11
2023-05-14T12:22:53.670Z,20.02
2023-05-14T12:23:53.705Z,19.94
2023-05-14T12:24:53.666Z,19.89
2023-05-14T12:25:53.757Z,19.82
2023-05-14T12:26:53.664Z,19.90
2023-05-14T12:27:53.652Z,19.90
2023-05-14T12:28:53.675Z,19.87
2023-05-14T12:29:53.666Z,19.81
2023-05-14T12:30:53.628Z,19.67
2023-05-14T12:31:53.629Z,19.75
2023-05-14T12:32:53.639Z,19.84
2023-05-14T12:33:53.580Z,19.79
2023-05-14T12:34:53.569Z,19.87
2023-05-14T12:35:53.576Z,19.99
2023-05-14T12:36:54.117Z,19.96
2023-05-14T12:37:53.574Z,19.96
2023-05-14T12:38:53.524Z,19.97
2023-05-14T12:39:53.744Z,20.08
2023-05-14T12:40:53.505Z,20.23
2023-05-14T12:41:53.564Z,20.37
2023-05-14T12:42:54.999Z,20.53
2023-05-14T12:43:53.460Z,20.71
2023-05-14T12:44:53.508Z,20.85
2023-05-14T12:45:53.624Z,20.80
2023-05-14T12:46:53.708Z,20.85
2023-05-14T12:47:53.494Z,20.86
2023-05-14T12:48:53.602Z,20.82
2023-05-14T12:49:53.410Z,20.77
2023-05-14T12:50:53.397Z,20.74
2023-05-14T12:52:00.704Z,20.68